createdAt,value
2019-03-13T00:00:48.967Z,5.31
2019-03-13T00:03:19.655Z,5.32
2019-03-13T00:05:50.185Z,5.26
2019-03-13T00:08:20.778Z,5.33
2019-03-13T00:10:51.147Z,5.28
2019-03-13T00:13:21.885Z,5.28
2019-03-13T00:15:52.475Z,5.34
2019-03-13T00:18:23.003Z,5.34
2019-03-13T00:20:53.844Z,5.26
2019-03-13T00:23:24.205Z,5.25
2019-03-13T00:25:54.752Z,5.31
2019-03-13T00:28:25.170Z,5.34
2019-03-13T00:30:55.750Z,5.21
2019-03-13T00:33:26.347Z,5.20
2019-03-13T00:35:56.859Z,5.44
2019-03-13T00:38:27.227Z,5.39
2019-03-13T00:40:57.807Z,5.30
2019-03-13T00:43:28.240Z,5.37
2019-03-13T00:45:58.407Z,5.46
2019-03-13T00:48:28.879Z,5.40
2019-03-13T00:50:59.744Z,5.34
2019-03-13T00:53:30.343Z,5.18
2019-03-13T00:56:00.724Z,5.36
2019-03-13T00:58:31.063Z,5.40
2019-03-13T01:01:32.377Z,5.43
2019-03-13T01:04:24.694Z,5.41
2019-03-13T01:07:13.359Z,5.34
2019-03-13T01:09:43.517Z,5.57
2019-03-13T01:12:14.000Z,5.61
2019-03-13T01:14:44.417Z,5.63
2019-03-13T01:17:14.885Z,5.72
2019-03-13T01:19:45.329Z,5.77
2019-03-13T01:22:15.655Z,5.69
2019-03-13T01:24:46.005Z,5.86
2019-03-13T01:27:16.564Z,5.78
2019-03-13T01:29:46.858Z,5.81
2019-03-13T01:32:34.405Z,5.83
2019-03-13T01:35:26.137Z,5.78
2019-03-13T01:37:56.434Z,5.76
2019-03-13T01:40:27.159Z,5.73
2019-03-13T01:42:57.809Z,5.66
2019-03-13T01:45:28.255Z,5.63
2019-03-13T01:47:58.688Z,5.51
2019-03-13T01:50:29.035Z,5.46
2019-03-13T01:52:59.421Z,5.38
2019-03-13T01:55:29.938Z,5.38
2019-03-13T01:58:00.529Z,5.33
2019-03-13T02:00:30.945Z,5.44
2019-03-13T02:03:01.445Z,5.40
2019-03-13T02:05:31.841Z,5.47
2019-03-13T02:08:02.110Z,5.62
2019-03-13T02:10:32.593Z,5.53
2019-03-13T02:13:03.111Z,5.38
2019-03-13T02:15:33.517Z,5.25
2019-03-13T02:18:04.167Z,5.17
2019-03-13T02:20:34.787Z,5.03
2019-03-13T02:23:05.011Z,5.00
2019-03-13T02:25:35.538Z,5.02
2019-03-13T02:28:06.098Z,4.86
2019-03-13T02:30:36.697Z,4.70
2019-03-13T02:33:07.276Z,4.56
2019-03-13T02:35:37.981Z,4.37
2019-03-13T02:38:08.382Z,4.25
2019-03-13T02:40:38.791Z,4.07
2019-03-13T02:43:09.290Z,3.96
2019-03-13T02:45:39.780Z,3.77
2019-03-13T02:48:10.482Z,3.66
2019-03-13T02:50:41.005Z,3.61
2019-03-13T02:53:11.291Z,3.53
2019-03-13T02:55:41.892Z,3.44
2019-03-13T02:58:12.376Z,3.37
2019-03-13T03:01:02.118Z,3.21
2019-03-13T03:03:34.848Z,3.26
2019-03-13T03:06:05.328Z,3.39
2019-03-13T03:08:35.917Z,3.30
2019-03-13T03:11:06.487Z,3.28
2019-03-13T03:13:36.947Z,3.10
2019-03-13T03:16:07.547Z,2.99
2019-03-13T03:18:38.128Z,2.89
2019-03-13T03:21:08.343Z,3.02
2019-03-13T03:23:38.853Z,3.05
2019-03-13T03:26:09.372Z,3.38
2019-03-13T03:28:40.076Z,3.40
2019-03-13T03:31:11.070Z,3.32
2019-03-13T03:33:41.620Z,3.27
2019-03-13T03:36:12.233Z,3.31
2019-03-13T03:38:42.702Z,3.45
2019-03-13T03:41:13.234Z,3.49
2019-03-13T03:43:43.627Z,3.45
2019-03-13T03:46:14.242Z,3.77
2019-03-13T03:48:44.663Z,4.01
2019-03-13T03:51:15.100Z,4.07
2019-03-13T03:53:45.514Z,4.02
2019-03-13T03:56:15.973Z,3.99
2019-03-13T03:58:46.366Z,4.05
2019-03-13T04:01:16.700Z,4.11
2019-03-13T04:03:47.163Z,4.19
2019-03-13T04:06:17.988Z,4.10
2019-03-13T04:08:48.439Z,4.26
2019-03-13T04:11:19.002Z,4.47
2019-03-13T04:13:49.675Z,4.44
2019-03-13T04:16:20.019Z,4.43
2019-03-13T04:18:50.692Z,4.37
2019-03-13T04:21:21.030Z,4.48
2019-03-13T04:23:51.309Z,4.62
2019-03-13T04:26:21.825Z,4.62
2019-03-13T04:28:52.443Z,4.51
2019-03-13T04:31:23.074Z,4.47
2019-03-13T04:33:53.394Z,4.46
2019-03-13T04:36:23.716Z,4.47
2019-03-13T04:38:54.127Z,4.43
2019-03-13T04:41:24.654Z,4.66
2019-03-13T04:43:55.148Z,4.65
2019-03-13T04:46:25.852Z,4.62
2019-03-13T04:48:56.681Z,4.66
2019-03-13T04:51:27.059Z,4.75
2019-03-13T04:53:57.608Z,4.78
2019-03-13T04:56:28.028Z,4.68
2019-03-13T04:58:58.164Z,4.92
2019-03-13T05:01:28.646Z,4.86
2019-03-13T05:03:59.322Z,4.75
2019-03-13T05:06:30.914Z,4.70
2019-03-13T05:09:09.967Z,4.68
2019-03-13T05:11:40.514Z,4.68
2019-03-13T05:14:10.986Z,4.72
2019-03-13T05:16:41.541Z,4.73
2019-03-13T05:19:11.934Z,4.70
2019-03-13T05:21:42.619Z,4.84
2019-03-13T05:24:13.020Z,4.88
2019-03-13T05:26:43.461Z,4.98
2019-03-13T05:29:13.828Z,5.21
2019-03-13T05:31:44.182Z,5.23
2019-03-13T05:34:15.018Z,5.36
2019-03-13T05:36:45.556Z,5.41
2019-03-13T05:39:15.825Z,5.37
2019-03-13T05:41:46.376Z,5.69
2019-03-13T05:44:16.695Z,5.79
2019-03-13T05:46:47.327Z,5.74
2019-03-13T05:49:17.880Z,5.56
2019-03-13T05:51:48.397Z,5.70
2019-03-13T05:54:19.189Z,5.85
2019-03-13T05:56:49.633Z,5.97
2019-03-13T05:59:20.389Z,6.08
2019-03-13T06:01:50.991Z,6.28
2019-03-13T06:04:21.544Z,6.30
2019-03-13T06:06:51.924Z,6.19
2019-03-13T06:09:25.498Z,6.05
2019-03-13T06:11:54.866Z,6.08
2019-03-13T06:14:25.476Z,6.18
2019-03-13T06:16:56.216Z,6.31
2019-03-13T06:19:26.293Z,6.43
2019-03-13T06:21:56.945Z,6.58
2019-03-13T06:24:27.583Z,6.64
2019-03-13T06:26:57.929Z,6.77
2019-03-13T06:29:31.511Z,6.95
2019-03-13T06:32:00.572Z,7.09
2019-03-13T06:34:30.777Z,7.30
2019-03-13T06:37:01.040Z,7.48
2019-03-13T06:39:32.140Z,7.64
2019-03-13T06:42:02.748Z,7.77
2019-03-13T06:44:33.488Z,7.87
2019-03-13T06:47:03.828Z,7.89
2019-03-13T06:49:34.155Z,8.04
2019-03-13T06:52:04.566Z,8.11
2019-03-13T06:54:35.048Z,8.30
2019-03-13T06:57:05.334Z,8.39
2019-03-13T06:59:54.743Z,8.43
2019-03-13T07:02:40.285Z,8.28
2019-03-13T07:05:32.429Z,8.47
2019-03-13T07:08:36.841Z,8.73
2019-03-13T07:11:26.278Z,8.74
2019-03-13T07:14:02.610Z,8.58
2019-03-13T07:16:51.713Z,8.48
2019-03-13T07:19:31.319Z,9.06
2019-03-13T07:22:41.426Z,10.19
2019-03-13T07:25:27.497Z,11.57
2019-03-13T07:28:22.420Z,13.27
2019-03-13T07:31:20.650Z,14.93
2019-03-13T07:34:08.596Z,16.12
2019-03-13T07:36:51.611Z,16.91
2019-03-13T07:39:40.948Z,17.45
2019-03-13T07:42:42.425Z,18.41
2019-03-13T07:45:20.756Z,18.08
2019-03-13T07:48:18.240Z,17.80
2019-03-13T07:51:06.282Z,17.37
2019-03-13T07:53:55.329Z,16.94
2019-03-13T07:56:33.785Z,16.31
2019-03-13T07:59:19.144Z,16.06
2019-03-13T08:02:05.258Z,16.02
2019-03-13T08:05:03.571Z,16.25
2019-03-13T08:07:51.567Z,17.06
2019-03-13T08:10:41.021Z,19.30
2019-03-13T08:13:36.106Z,20.73
2019-03-13T08:16:34.492Z,22.11
2019-03-13T08:19:30.190Z,23.51
2019-03-13T08:22:19.611Z,24.29
2019-03-13T08:25:11.956Z,23.88
2019-03-13T08:27:58.638Z,23.36
2019-03-13T08:30:46.451Z,23.48
2019-03-13T08:33:37.041Z,23.02
2019-03-13T08:36:40.360Z,23.21
2019-03-13T08:39:31.056Z,23.68
2019-03-13T08:42:20.288Z,23.53
2019-03-13T08:45:13.508Z,20.84
2019-03-13T08:48:00.423Z,19.86
2019-03-13T08:50:52.431Z,20.22
2019-03-13T08:53:42.041Z,20.02
2019-03-13T08:56:30.372Z,19.76
2019-03-13T08:59:25.483Z,19.90
2019-03-13T09:02:05.812Z,18.76
2019-03-13T09:04:58.034Z,17.26
2019-03-13T09:07:46.093Z,16.38
2019-03-13T09:10:50.851Z,15.90
2019-03-13T09:14:05.719Z,15.32
2019-03-13T09:17:13.363Z,15.06
2019-03-13T09:19:54.918Z,15.27
2019-03-13T09:22:33.779Z,15.17
2019-03-13T09:25:26.834Z,14.58
2019-03-13T09:28:21.754Z,13.92
2019-03-13T09:31:15.616Z,13.62
2019-03-13T09:34:10.790Z,14.12
2019-03-13T09:37:00.116Z,13.72
2019-03-13T09:40:08.081Z,13.73
2019-03-13T09:43:03.461Z,13.96
2019-03-13T09:45:56.681Z,14.15
2019-03-13T09:48:42.998Z,14.81
2019-03-13T09:51:19.131Z,14.94
2019-03-13T09:53:55.584Z,14.63
2019-03-13T09:56:57.165Z,15.69
2019-03-13T09:59:43.164Z,15.89
2019-03-13T10:02:27.793Z,17.17
2019-03-13T10:05:36.568Z,17.38
2019-03-13T10:08:16.497Z,18.29
2019-03-13T10:10:55.027Z,21.71
2019-03-13T10:13:35.821Z,21.28
2019-03-13T10:16:11.855Z,21.55
2019-03-13T10:19:04.087Z,22.52
2019-03-13T10:22:05.255Z,21.20
2019-03-13T10:25:15.539Z,19.72
2019-03-13T10:27:52.040Z,19.53
2019-03-13T10:30:50.290Z,17.92
2019-03-13T10:33:37.563Z,17.04
2019-03-13T10:36:18.897Z,15.88
2019-03-13T10:39:08.364Z,14.65
2019-03-13T10:42:09.394Z,14.97
2019-03-13T10:45:14.210Z,14.42
2019-03-13T10:47:52.386Z,14.16
2019-03-13T10:50:36.873Z,14.69
2019-03-13T10:53:41.258Z,15.00
2019-03-13T10:56:29.751Z,16.39
2019-03-13T10:59:22.145Z,17.89
2019-03-13T11:02:17.170Z,17.24
2019-03-13T11:04:55.719Z,18.00
2019-03-13T11:07:37.500Z,19.63
2019-03-13T11:10:30.405Z,20.85
2019-03-13T11:13:29.077Z,19.95
2019-03-13T11:16:17.140Z,21.02
2019-03-13T11:19:18.482Z,21.10
2019-03-13T11:22:14.227Z,20.04
2019-03-13T11:24:53.228Z,18.66
2019-03-13T11:27:51.614Z,20.27
2019-03-13T11:30:53.165Z,19.53
2019-03-13T11:33:49.458Z,18.82
2019-03-13T11:36:29.972Z,18.34
2019-03-13T11:39:20.849Z,17.22
2019-03-13T11:42:13.560Z,16.28
2019-03-13T11:44:59.281Z,15.50
2019-03-13T11:47:43.835Z,15.26
2019-03-13T11:50:33.933Z,14.62
2019-03-13T11:53:12.863Z,14.31
2019-03-13T11:56:00.893Z,14.61
2019-03-13T11:58:42.378Z,14.15
2019-03-13T12:01:30.312Z,14.88
2019-03-13T12:04:18.275Z,16.94
2019-03-13T12:07:15.695Z,18.72
2019-03-13T12:10:04.898Z,21.60
2019-03-13T12:12:55.376Z,22.25
2019-03-13T12:15:55.897Z,22.69
2019-03-13T12:18:34.489Z,22.80
2019-03-13T12:21:29.194Z,24.52
2019-03-13T12:24:30.473Z,25.49
2019-03-13T12:27:31.686Z,25.91
2019-03-13T12:30:19.513Z,27.15
2019-03-13T12:32:59.536Z,26.62
2019-03-13T12:35:53.245Z,26.60
2019-03-13T12:39:01.159Z,26.35
2019-03-13T12:41:49.067Z,23.50
2019-03-13T12:44:26.220Z,24.02
2019-03-13T12:47:15.495Z,22.34
2019-03-13T12:50:04.909Z,22.52
2019-03-13T12:53:03.292Z,23.53
2019-03-13T12:55:57.098Z,22.31
2019-03-13T12:58:46.556Z,20.72
2019-03-13T13:01:34.605Z,19.51
2019-03-13T13:04:26.855Z,17.54
2019-03-13T13:07:15.636Z,16.14
2019-03-13T13:10:08.343Z,15.69
2019-03-13T13:12:56.379Z,15.20
2019-03-13T13:15:45.535Z,14.69
2019-03-13T13:18:33.594Z,14.20
2019-03-13T13:21:12.950Z,13.72
2019-03-13T13:23:47.131Z,13.65
2019-03-13T13:26:17.836Z,13.25
2019-03-13T13:28:49.697Z,13.34
2019-03-13T13:31:19.945Z,13.34
2019-03-13T13:34:20.306Z,13.42
2019-03-13T13:36:50.277Z,13.06
2019-03-13T13:39:24.185Z,13.04
2019-03-13T13:42:00.566Z,12.88
2019-03-13T13:44:34.273Z,13.12
2019-03-13T13:47:10.792Z,12.66
2019-03-13T13:49:44.376Z,12.67
2019-03-13T13:52:14.560Z,12.39
2019-03-13T13:54:45.261Z,12.31
2019-03-13T13:57:16.092Z,12.40
2019-03-13T13:59:46.632Z,12.40
2019-03-13T14:02:26.978Z,12.22
2019-03-13T14:05:37.027Z,12.34
2019-03-13T14:08:10.130Z,12.00
2019-03-13T14:10:49.776Z,11.88
2019-03-13T14:13:20.528Z,11.89
2019-03-13T14:15:58.724Z,11.99
2019-03-13T14:18:32.533Z,11.93
2019-03-13T14:21:03.133Z,12.00
2019-03-13T14:23:33.689Z,12.10
2019-03-13T14:26:04.442Z,12.14
2019-03-13T14:28:36.721Z,12.15
2019-03-13T14:31:29.382Z,12.20
2019-03-13T14:34:13.147Z,12.16
2019-03-13T14:36:41.044Z,11.90
2019-03-13T14:39:13.722Z,12.05
2019-03-13T14:41:49.301Z,11.87
2019-03-13T14:44:31.300Z,11.85
2019-03-13T14:47:02.280Z,11.88
2019-03-13T14:49:37.017Z,11.73
2019-03-13T14:52:07.433Z,11.64
2019-03-13T14:54:37.649Z,11.68
2019-03-13T14:57:16.150Z,11.70
2019-03-13T14:59:53.325Z,11.55
2019-03-13T15:02:28.165Z,11.41
2019-03-13T15:05:00.652Z,11.13
2019-03-13T15:07:31.669Z,10.99
2019-03-13T15:10:04.819Z,11.20
2019-03-13T15:12:45.401Z,11.13
2019-03-13T15:15:28.497Z,11.07
2019-03-13T15:17:59.198Z,10.97
2019-03-13T15:20:37.420Z,11.09
2019-03-13T15:23:13.340Z,11.03
2019-03-13T15:25:46.990Z,11.05
2019-03-13T15:28:17.936Z,11.15
2019-03-13T15:30:58.646Z,11.12
2019-03-13T15:33:43.299Z,11.00
2019-03-13T15:36:17.709Z,11.01
2019-03-13T15:38:48.338Z,10.98
2019-03-13T15:41:26.211Z,10.43
2019-03-13T15:43:56.930Z,10.58
2019-03-13T15:46:27.778Z,10.78
2019-03-13T15:48:58.369Z,10.74
2019-03-13T15:51:29.260Z,10.79
2019-03-13T15:54:03.430Z,10.82
2019-03-13T15:56:34.078Z,10.73
2019-03-13T15:59:04.130Z,10.53
2019-03-13T16:01:36.403Z,10.31
2019-03-13T16:04:17.527Z,10.31
2019-03-13T16:06:47.922Z,10.47
2019-03-13T16:09:23.111Z,10.44
2019-03-13T16:11:52.763Z,10.52
2019-03-13T16:14:39.081Z,10.31
2019-03-13T16:17:13.946Z,10.36
2019-03-13T16:19:49.847Z,10.38
2019-03-13T16:22:24.109Z,10.37
2019-03-13T16:24:54.869Z,10.21
2019-03-13T16:27:25.258Z,10.16
2019-03-13T16:29:55.949Z,10.25
2019-03-13T16:32:28.810Z,10.43
2019-03-13T16:34:59.145Z,10.30
2019-03-13T16:37:41.911Z,10.20
2019-03-13T16:40:13.964Z,10.32
2019-03-13T16:42:44.430Z,10.28
2019-03-13T16:45:15.833Z,10.16
2019-03-13T16:47:46.652Z,9.99
2019-03-13T16:50:21.024Z,9.97
2019-03-13T16:52:51.669Z,9.97
2019-03-13T16:55:22.323Z,10.07
2019-03-13T16:57:53.117Z,9.87
2019-03-13T17:00:24.786Z,9.93
2019-03-13T17:02:55.309Z,9.93
2019-03-13T17:05:25.904Z,9.88
2019-03-13T17:08:04.254Z,9.99
2019-03-13T17:10:38.859Z,9.76
2019-03-13T17:13:09.656Z,9.82
2019-03-13T17:15:40.039Z,9.97
2019-03-13T17:18:16.025Z,9.90
2019-03-13T17:20:47.037Z,9.90
2019-03-13T17:23:19.934Z,9.88
2019-03-13T17:25:50.143Z,10.17
2019-03-13T17:28:21.144Z,9.99
2019-03-13T17:30:52.547Z,9.89
2019-03-13T17:33:23.472Z,9.92
2019-03-13T17:35:56.335Z,9.92
2019-03-13T17:38:27.073Z,10.00
2019-03-13T17:40:57.816Z,9.98
2019-03-13T17:43:39.135Z,9.88
2019-03-13T17:46:07.242Z,9.90
2019-03-13T17:48:39.651Z,9.81
2019-03-13T17:51:11.910Z,9.65
2019-03-13T17:53:42.284Z,9.48
2019-03-13T17:56:12.714Z,9.56
2019-03-13T17:58:43.309Z,9.66
2019-03-13T18:01:13.785Z,9.70
2019-03-13T18:03:44.351Z,9.62
2019-03-13T18:06:15.156Z,9.70
2019-03-13T18:08:46.241Z,9.82
2019-03-13T18:11:16.912Z,9.76
2019-03-13T18:13:47.325Z,9.70
2019-03-13T18:16:18.024Z,9.54
2019-03-13T18:18:48.164Z,9.60
2019-03-13T18:21:21.407Z,9.71
2019-03-13T18:23:51.941Z,9.71
2019-03-13T18:26:22.951Z,9.65
2019-03-13T18:28:54.299Z,9.57
2019-03-13T18:31:25.150Z,9.43
2019-03-13T18:33:57.781Z,9.73
2019-03-13T18:36:28.446Z,9.65
2019-03-13T18:38:58.899Z,9.49
2019-03-13T18:41:29.472Z,9.39
2019-03-13T18:44:00.059Z,9.33
2019-03-13T18:46:30.385Z,9.23
2019-03-13T18:49:00.980Z,9.31
2019-03-13T18:51:31.330Z,9.34
2019-03-13T18:54:02.092Z,9.35
2019-03-13T18:56:32.518Z,9.39
2019-03-13T18:59:03.007Z,9.26
2019-03-13T19:01:33.606Z,9.12
2019-03-13T19:04:04.500Z,9.38
2019-03-13T19:06:35.100Z,9.30
2019-03-13T19:09:06.352Z,9.35
2019-03-13T19:11:36.959Z,9.29
2019-03-13T19:14:07.705Z,9.22
2019-03-13T19:16:38.438Z,9.23
2019-03-13T19:19:09.214Z,9.21
2019-03-13T19:21:40.426Z,9.18
2019-03-13T19:24:11.407Z,9.13
2019-03-13T19:26:42.202Z,9.14
2019-03-13T19:29:15.010Z,9.15
2019-03-13T19:31:45.907Z,9.16
2019-03-13T19:34:16.603Z,9.16
2019-03-13T19:36:51.261Z,9.20
2019-03-13T19:39:22.784Z,9.15
2019-03-13T19:41:53.431Z,9.11
2019-03-13T19:44:23.979Z,9.09
2019-03-13T19:46:54.604Z,9.05
2019-03-13T19:49:25.272Z,9.08
2019-03-13T19:51:55.783Z,9.14
2019-03-13T19:54:26.386Z,9.20
2019-03-13T19:56:56.969Z,9.19
2019-03-13T19:59:27.449Z,9.24
2019-03-13T20:01:57.903Z,9.33
2019-03-13T20:04:30.571Z,9.28
2019-03-13T20:07:03.027Z,9.21
2019-03-13T20:09:35.554Z,9.24
2019-03-13T20:12:06.241Z,9.22
2019-03-13T20:14:36.759Z,9.17
2019-03-13T20:17:07.397Z,9.03
2019-03-13T20:19:38.125Z,8.95
2019-03-13T20:22:08.977Z,8.93
2019-03-13T20:24:39.555Z,8.92
2019-03-13T20:27:10.018Z,8.90
2019-03-13T20:29:40.683Z,8.79
2019-03-13T20:32:12.411Z,8.79
2019-03-13T20:34:43.249Z,8.86
2019-03-13T20:37:13.881Z,8.95
2019-03-13T20:39:47.021Z,8.80
2019-03-13T20:42:17.898Z,8.71
2019-03-13T20:44:48.576Z,8.69
2019-03-13T20:47:19.077Z,8.69
2019-03-13T20:49:49.417Z,8.63
2019-03-13T20:52:19.868Z,8.65
2019-03-13T20:54:50.615Z,8.60
2019-03-13T20:57:21.157Z,8.47
2019-03-13T20:59:51.721Z,8.44
2019-03-13T21:02:22.239Z,8.42
2019-03-13T21:04:52.955Z,8.48
2019-03-13T21:07:23.416Z,8.71
2019-03-13T21:09:55.553Z,8.79
2019-03-13T21:12:26.141Z,8.77
2019-03-13T21:14:56.752Z,8.67
2019-03-13T21:17:27.268Z,8.63
2019-03-13T21:19:59.421Z,8.70
2019-03-13T21:22:29.720Z,8.85
2019-03-13T21:24:59.966Z,8.81
2019-03-13T21:27:30.721Z,8.79
2019-03-13T21:30:01.449Z,8.79
2019-03-13T21:32:32.142Z,8.77
2019-03-13T21:35:02.800Z,8.77
2019-03-13T21:37:33.747Z,8.78
2019-03-13T21:40:04.821Z,8.80
2019-03-13T21:42:35.499Z,8.76
2019-03-13T21:45:06.160Z,8.66
2019-03-13T21:47:36.779Z,8.62
2019-03-13T21:50:08.235Z,8.68
2019-03-13T21:52:38.925Z,8.72
2019-03-13T21:55:10.268Z,8.78
2019-03-13T21:57:43.095Z,8.65
2019-03-13T22:00:20.167Z,8.52
2019-03-13T22:02:50.759Z,8.58
2019-03-13T22:05:26.145Z,8.63
2019-03-13T22:07:54.313Z,8.38
2019-03-13T22:10:24.781Z,8.62
2019-03-13T22:12:57.002Z,8.68
2019-03-13T22:15:27.675Z,8.12
2019-03-13T22:17:58.266Z,7.95
2019-03-13T22:20:43.891Z,8.04
2019-03-13T22:23:14.490Z,8.25
2019-03-13T22:25:48.883Z,8.07
2019-03-13T22:28:19.466Z,8.14
2019-03-13T22:30:50.195Z,8.30
2019-03-13T22:33:21.116Z,8.13
2019-03-13T22:35:54.127Z,7.90
2019-03-13T22:38:25.029Z,7.67
2019-03-13T22:40:55.590Z,7.65
2019-03-13T22:43:26.090Z,7.39
2019-03-13T22:45:59.443Z,7.56
2019-03-13T22:48:30.102Z,7.65
2019-03-13T22:51:02.402Z,7.57
2019-03-13T22:53:32.839Z,7.50
2019-03-13T22:56:03.517Z,7.42
2019-03-13T22:58:34.276Z,7.27
2019-03-13T23:01:18.208Z,7.06
2019-03-13T23:03:49.257Z,7.00
2019-03-13T23:06:21.740Z,7.02
2019-03-13T23:08:52.466Z,6.89
2019-03-13T23:11:23.062Z,6.76
2019-03-13T23:13:53.448Z,6.86
2019-03-13T23:16:24.444Z,6.71
2019-03-13T23:18:55.022Z,6.73
2019-03-13T23:21:25.669Z,6.76
2019-03-13T23:23:56.166Z,6.50
2019-03-13T23:26:26.689Z,6.62
2019-03-13T23:28:57.064Z,6.32
2019-03-13T23:31:27.488Z,6.49
2019-03-13T23:33:58.161Z,6.33
2019-03-13T23:36:28.676Z,6.47
2019-03-13T23:39:01.644Z,6.62
2019-03-13T23:41:32.291Z,6.57
2019-03-13T23:44:02.909Z,6.51
2019-03-13T23:46:33.623Z,6.44
2019-03-13T23:49:04.154Z,6.40
2019-03-13T23:51:42.630Z,6.36
2019-03-13T23:54:24.246Z,6.55
2019-03-13T23:56:54.869Z,6.56
2019-03-13T23:59:37.251Z,6.48
